San Francisco, CA

2:35 AM PDT en Octubre 15, 2018 (GMT -0700)
North Mission (Valencia and Market) | | Change Station

Alt 62 ft 37.77 °N, 122.42 °W | Updated 5 minutes ago

Despejado
Despejado
59.7 ° F
Sensación térmica 59.7 ° F
N
0
Viento Variable Viento desde Oeste
Gusts 2.0 mph

Hoy
Alta -- | Baja -- ° F
--% Posibilidad de precipitaciones
Ayer
Alta -- | Baja -- ° F
Precip. -- pul
Presión 30.05 pul
Visibilidad 10.0 Millas
Nubes Despejado
Punto de rocío 38 ° F
Humedad 45%
Precipitaciones 0.00 pul
Espesor de la nieve No disponible.
7:18 AM 6:32 PM
Creciente, 37% visible
METAR KSFO 150856Z 05013KT 10SM CLR 19/02 A3005 RMK AO2 WSHFT 0828 SLP174 T01940022 51018 $
Presión 30.05 pul
Visibilidad 10.0 Millas
Nubes Despejado
Punto de rocío 38 ° F
Humedad 45%
Precipitaciones 0.00 pul
Espesor de la nieve No disponible.
7:18 AM 6:32 PM
Creciente, 37% visible
METAR KSFO 150856Z 05013KT 10SM CLR 19/02 A3005 RMK AO2 WSHFT 0828 SLP174 T01940022 51018 $

Get Severe Weather Alerts

Thanks for signing up!

Be on the lookout for a verification email in your inbox.

You'll start receiving the daily forecast at 6 AM.

×

10-Day Weather Forecast

Almanac

Astronomía

Oct. 15, 2018 Salida Puesta
Hora real
Crepúsculo civil
Crepúsculo náutico
Crepúsculo astronómico
Luna
Horas de luz
Horas de luz
Tomorrow will be .
, % of the Moon is Illuminated

Extremos de hoy

Máximos del estado Bajos del estado

Community

WunderPhotos

Category 6

Welcome to Category 6. This is the collective home for Weather Underground's featured writeups by Dr. Jeff Masters (right), Bob Henson (left), Chris Burt, and other regular contributors.

Nearby

Calidad del aire

  Calidad del aire Índice AQ Contaminante
Not available.

Grosos de nieve

Estación Profundido Altura

Actividad de terremotos

Ciudad Distance Mag. Tiempo y dato
Magnitud mínima muestra es 2,5.

Temperaturas de aguas costeras

Lugar Temperatura

Stations

Estaciones meteorológicas cercanas

Ubicación de la estación Temp. Vientos helados Punto de rocío Humedad Viento Precip. Alt Actualizado Tipo
                   

Watches & Warnings

There are currently no watches in effect.